sensor_id;sensor_type;location;lat;lon;timestamp;temperature;humidity
82126;DHT22;71668;51.400;6.758;2024-01-07T00:00:44;4.10;99.90
82126;DHT22;71668;51.400;6.758;2024-01-07T00:03:11;4.00;99.90
82126;DHT22;71668;51.400;6.758;2024-01-07T00:05:38;4.00;99.90
82126;DHT22;71668;51.400;6.758;2024-01-07T00:08:05;4.10;99.90
82126;DHT22;71668;51.400;6.758;2024-01-07T00:10:32;4.10;99.90
82126;DHT22;71668;51.400;6.758;2024-01-07T00:12:59;4.20;99.90
82126;DHT22;71668;51.400;6.758;2024-01-07T00:15:26;4.20;99.90
82126;DHT22;71668;51.400;6.758;2024-01-07T00:17:53;4.20;99.90
82126;DHT22;71668;51.400;6.758;2024-01-07T00:20:21;4.20;99.90
82126;DHT22;71668;51.400;6.758;2024-01-07T00:22:47;4.10;99.90
82126;DHT22;71668;51.400;6.758;2024-01-07T00:25:14;4.10;99.90
82126;DHT22;71668;51.400;6.758;2024-01-07T00:27:41;4.10;99.90
82126;DHT22;71668;51.400;6.758;2024-01-07T00:30:08;4.00;99.90
82126;DHT22;71668;51.400;6.758;2024-01-07T00:32:35;4.00;99.90
82126;DHT22;71668;51.400;6.758;2024-01-07T00:35:02;4.00;99.90
82126;DHT22;71668;51.400;6.758;2024-01-07T00:37:29;4.00;99.90
82126;DHT22;71668;51.400;6.758;2024-01-07T00:39:56;4.00;99.90
82126;DHT22;71668;51.400;6.758;2024-01-07T00:42:23;3.90;99.90
82126;DHT22;71668;51.400;6.758;2024-01-07T00:44:50;3.80;99.90
82126;DHT22;71668;51.400;6.758;2024-01-07T00:47:17;3.80;99.90
82126;DHT22;71668;51.400;6.758;2024-01-07T00:49:44;3.90;99.90
82126;DHT22;71668;51.400;6.758;2024-01-07T00:52:10;3.90;99.90
82126;DHT22;71668;51.400;6.758;2024-01-07T00:54:38;3.80;99.90
82126;DHT22;71668;51.400;6.758;2024-01-07T00:57:05;3.80;99.90
82126;DHT22;71668;51.400;6.758;2024-01-07T00:59:32;3.90;99.90
82126;DHT22;71668;51.400;6.758;2024-01-07T01:01:59;3.90;99.90
82126;DHT22;71668;51.400;6.758;2024-01-07T01:04:26;4.00;99.90
82126;DHT22;71668;51.400;6.758;2024-01-07T01:06:53;3.90;99.90
82126;DHT22;71668;51.400;6.758;2024-01-07T01:09:21;3.90;99.90
82126;DHT22;71668;51.400;6.758;2024-01-07T01:11:48;3.90;99.90
82126;DHT22;71668;51.400;6.758;2024-01-07T01:14:16;3.90;99.90
82126;DHT22;71668;51.400;6.758;2024-01-07T01:16:43;3.90;99.90
82126;DHT22;71668;51.400;6.758;2024-01-07T01:19:10;3.90;99.90
82126;DHT22;71668;51.400;6.758;2024-01-07T01:21:37;3.90;99.90
82126;DHT22;71668;51.400;6.758;2024-01-07T01:24:04;3.90;99.90
82126;DHT22;71668;51.400;6.758;2024-01-07T01:26:32;3.90;99.90
82126;DHT22;71668;51.400;6.758;2024-01-07T01:28:58;3.80;99.90
82126;DHT22;71668;51.400;6.758;2024-01-07T01:31:25;3.80;99.90
82126;DHT22;71668;51.400;6.758;2024-01-07T01:33:52;3.80;99.90
82126;DHT22;71668;51.400;6.758;2024-01-07T01:36:19;3.70;99.90
82126;DHT22;71668;51.400;6.758;2024-01-07T01:38:46;3.70;99.90
82126;DHT22;71668;51.400;6.758;2024-01-07T01:41:14;3.70;99.90
82126;DHT22;71668;51.400;6.758;2024-01-07T01:43:41;3.60;99.90
82126;DHT22;71668;51.400;6.758;2024-01-07T01:46:08;3.60;99.90
82126;DHT22;71668;51.400;6.758;2024-01-07T01:48:37;3.70;99.90
82126;DHT22;71668;51.400;6.758;2024-01-07T01:51:05;3.70;99.90
82126;DHT22;71668;51.400;6.758;2024-01-07T01:53:33;3.80;99.90
82126;DHT22;71668;51.400;6.758;2024-01-07T01:56:01;3.80;99.90
82126;DHT22;71668;51.400;6.758;2024-01-07T01:58:31;3.80;99.90
82126;DHT22;71668;51.400;6.758;2024-01-07T02:00:59;3.90;99.90
82126;DHT22;71668;51.400;6.758;2024-01-07T02:03:25;3.90;99.90
82126;DHT22;71668;51.400;6.758;2024-01-07T02:05:53;3.90;99.90
82126;DHT22;71668;51.400;6.758;2024-01-07T02:08:20;3.90;99.90
82126;DHT22;71668;51.400;6.758;2024-01-07T02:10:47;3.90;99.90
82126;DHT22;71668;51.400;6.758;2024-01-07T02:13:14;3.90;99.90
82126;DHT22;71668;51.400;6.758;2024-01-07T02:15:42;3.90;99.90
82126;DHT22;71668;51.400;6.758;2024-01-07T02:18:09;3.80;99.90
82126;DHT22;71668;51.400;6.758;2024-01-07T02:20:36;3.80;99.90
82126;DHT22;71668;51.400;6.758;2024-01-07T02:23:04;3.80;99.90
82126;DHT22;71668;51.400;6.758;2024-01-07T02:25:37;3.70;99.90
82126;DHT22;71668;51.400;6.758;2024-01-07T02:28:05;3.80;99.90
82126;DHT22;71668;51.400;6.758;2024-01-07T02:30:32;3.80;99.90
82126;DHT22;71668;51.400;6.758;2024-01-07T02:33:02;3.70;99.90
82126;DHT22;71668;51.400;6.758;2024-01-07T02:35:32;3.80;99.90
82126;DHT22;71668;51.400;6.758;2024-01-07T02:37:59;3.70;99.90
82126;DHT22;71668;51.400;6.758;2024-01-07T02:40:26;3.70;99.90
82126;DHT22;71668;51.400;6.758;2024-01-07T02:42:53;3.60;99.90
82126;DHT22;71668;51.400;6.758;2024-01-07T02:45:20;3.50;99.90
82126;DHT22;71668;51.400;6.758;2024-01-07T02:47:47;3.40;99.90
82126;DHT22;71668;51.400;6.758;2024-01-07T02:50:14;3.30;99.90
82126;DHT22;71668;51.400;6.758;2024-01-07T02:52:42;3.30;99.90
82126;DHT22;71668;51.400;6.758;2024-01-07T02:55:09;3.40;99.90
82126;DHT22;71668;51.400;6.758;2024-01-07T02:57:36;3.40;99.90
82126;DHT22;71668;51.400;6.758;2024-01-07T03:00:03;3.40;99.90
82126;DHT22;71668;51.400;6.758;2024-01-07T03:02:31;3.30;99.90
82126;DHT22;71668;51.400;6.758;2024-01-07T03:04:58;3.30;99.90
82126;DHT22;71668;51.400;6.758;2024-01-07T03:07:25;3.50;99.90
82126;DHT22;71668;51.400;6.758;2024-01-07T03:09:52;3.60;99.90
82126;DHT22;71668;51.400;6.758;2024-01-07T03:12:18;3.60;99.90
82126;DHT22;71668;51.400;6.758;2024-01-07T03:14:45;3.70;99.90
82126;DHT22;71668;51.400;6.758;2024-01-07T03:17:12;3.80;99.90
82126;DHT22;71668;51.400;6.758;2024-01-07T03:19:41;3.60;99.90
82126;DHT22;71668;51.400;6.758;2024-01-07T03:22:08;3.50;99.90
82126;DHT22;71668;51.400;6.758;2024-01-07T03:24:35;3.20;99.90
82126;DHT22;71668;51.400;6.758;2024-01-07T03:27:01;3.30;99.90
82126;DHT22;71668;51.400;6.758;2024-01-07T03:29:28;3.30;99.90
82126;DHT22;71668;51.400;6.758;2024-01-07T03:31:55;3.30;99.90
82126;DHT22;71668;51.400;6.758;2024-01-07T03:34:22;3.40;99.90
82126;DHT22;71668;51.400;6.758;2024-01-07T03:36:49;3.30;99.90
82126;DHT22;71668;51.400;6.758;2024-01-07T03:39:16;3.30;99.90
82126;DHT22;71668;51.400;6.758;2024-01-07T03:41:43;3.30;99.90
82126;DHT22;71668;51.400;6.758;2024-01-07T03:44:10;3.20;99.90
82126;DHT22;71668;51.400;6.758;2024-01-07T03:46:37;3.10;99.90
82126;DHT22;71668;51.400;6.758;2024-01-07T03:49:03;3.10;99.90
82126;DHT22;71668;51.400;6.758;2024-01-07T03:51:30;3.10;99.90
82126;DHT22;71668;51.400;6.758;2024-01-07T03:53:57;3.20;99.90
82126;DHT22;71668;51.400;6.758;2024-01-07T03:56:24;3.10;99.90
82126;DHT22;71668;51.400;6.758;2024-01-07T03:58:51;3.10;99.90
82126;DHT22;71668;51.400;6.758;2024-01-07T04:01:20;3.20;99.90
82126;DHT22;71668;51.400;6.758;2024-01-07T04:03:47;3.20;99.90
82126;DHT22;71668;51.400;6.758;2024-01-07T04:06:14;3.30;99.90
82126;DHT22;71668;51.400;6.758;2024-01-07T04:08:41;3.30;99.90
82126;DHT22;71668;51.400;6.758;2024-01-07T04:11:07;3.30;99.90
82126;DHT22;71668;51.400;6.758;2024-01-07T04:13:34;3.10;99.90
82126;DHT22;71668;51.400;6.758;2024-01-07T04:16:01;3.00;99.90
82126;DHT22;71668;51.400;6.758;2024-01-07T04:18:28;3.00;99.90
82126;DHT22;71668;51.400;6.758;2024-01-07T04:20:55;3.00;99.90
82126;DHT22;71668;51.400;6.758;2024-01-07T04:23:22;3.10;99.90
82126;DHT22;71668;51.400;6.758;2024-01-07T04:25:49;3.20;99.90
82126;DHT22;71668;51.400;6.758;2024-01-07T04:28:15;3.30;99.90
82126;DHT22;71668;51.400;6.758;2024-01-07T04:30:42;3.30;99.90
82126;DHT22;71668;51.400;6.758;2024-01-07T04:33:09;3.40;99.90
82126;DHT22;71668;51.400;6.758;2024-01-07T04:35:39;3.30;99.90
82126;DHT22;71668;51.400;6.758;2024-01-07T04:38:05;3.30;99.90
82126;DHT22;71668;51.400;6.758;2024-01-07T04:40:32;3.30;99.90
82126;DHT22;71668;51.400;6.758;2024-01-07T04:42:59;3.20;99.90
82126;DHT22;71668;51.400;6.758;2024-01-07T04:45:26;3.10;99.90
82126;DHT22;71668;51.400;6.758;2024-01-07T04:47:53;3.10;99.90
82126;DHT22;71668;51.400;6.758;2024-01-07T04:50:20;2.80;99.90
82126;DHT22;71668;51.400;6.758;2024-01-07T04:52:47;2.70;99.90
82126;DHT22;71668;51.400;6.758;2024-01-07T04:55:14;2.60;99.90
82126;DHT22;71668;51.400;6.758;2024-01-07T04:57:40;2.70;99.90
82126;DHT22;71668;51.400;6.758;2024-01-07T05:00:08;2.60;99.90
82126;DHT22;71668;51.400;6.758;2024-01-07T05:02:35;2.60;99.90
82126;DHT22;71668;51.400;6.758;2024-01-07T05:05:02;2.60;99.90
82126;DHT22;71668;51.400;6.758;2024-01-07T05:07:29;2.60;99.90
82126;DHT22;71668;51.400;6.758;2024-01-07T05:09:55;2.50;99.90
82126;DHT22;71668;51.400;6.758;2024-01-07T05:12:22;2.50;99.90
82126;DHT22;71668;51.400;6.758;2024-01-07T05:14:51;2.50;99.90
82126;DHT22;71668;51.400;6.758;2024-01-07T05:17:18;2.50;99.90
82126;DHT22;71668;51.400;6.758;2024-01-07T05:19:45;2.50;99.90
82126;DHT22;71668;51.400;6.758;2024-01-07T05:22:12;2.50;99.90
82126;DHT22;71668;51.400;6.758;2024-01-07T05:24:39;2.40;99.90
82126;DHT22;71668;51.400;6.758;2024-01-07T05:27:09;2.50;99.90
82126;DHT22;71668;51.400;6.758;2024-01-07T05:29:35;2.50;99.90
82126;DHT22;71668;51.400;6.758;2024-01-07T05:32:02;2.40;99.90
82126;DHT22;71668;51.400;6.758;2024-01-07T05:34:30;2.50;99.90
82126;DHT22;71668;51.400;6.758;2024-01-07T05:36:57;2.50;99.90
82126;DHT22;71668;51.400;6.758;2024-01-07T05:39:23;2.40;99.90
82126;DHT22;71668;51.400;6.758;2024-01-07T05:41:51;2.40;99.90
82126;DHT22;71668;51.400;6.758;2024-01-07T05:44:17;2.40;99.90
82126;DHT22;71668;51.400;6.758;2024-01-07T05:46:44;2.40;99.90
82126;DHT22;71668;51.400;6.758;2024-01-07T05:49:11;2.40;99.90
82126;DHT22;71668;51.400;6.758;2024-01-07T05:51:41;2.30;99.90
82126;DHT22;71668;51.400;6.758;2024-01-07T05:54:08;2.30;99.90
82126;DHT22;71668;51.400;6.758;2024-01-07T05:56:41;2.40;99.90
82126;DHT22;71668;51.400;6.758;2024-01-07T05:59:08;2.50;99.90
82126;DHT22;71668;51.400;6.758;2024-01-07T06:01:35;2.40;99.90
82126;DHT22;71668;51.400;6.758;2024-01-07T06:04:02;2.40;99.90
82126;DHT22;71668;51.400;6.758;2024-01-07T06:06:29;2.40;99.90
82126;DHT22;71668;51.400;6.758;2024-01-07T06:08:57;2.40;99.90
82126;DHT22;71668;51.400;6.758;2024-01-07T06:11:23;2.30;99.90
82126;DHT22;71668;51.400;6.758;2024-01-07T06:13:50;2.30;99.90
82126;DHT22;71668;51.400;6.758;2024-01-07T06:16:17;2.30;99.90
82126;DHT22;71668;51.400;6.758;2024-01-07T06:18:44;2.20;99.90
82126;DHT22;71668;51.400;6.758;2024-01-07T06:21:11;2.20;99.90
82126;DHT22;71668;51.400;6.758;2024-01-07T06:23:38;2.20;99.90
82126;DHT22;71668;51.400;6.758;2024-01-07T06:26:05;2.20;99.90
82126;DHT22;71668;51.400;6.758;2024-01-07T06:28:32;2.30;99.90
82126;DHT22;71668;51.400;6.758;2024-01-07T06:31:02;2.30;99.90
82126;DHT22;71668;51.400;6.758;2024-01-07T06:33:29;2.30;99.90
82126;DHT22;71668;51.400;6.758;2024-01-07T06:35:56;2.30;99.90
82126;DHT22;71668;51.400;6.758;2024-01-07T06:38:23;2.20;99.90
82126;DHT22;71668;51.400;6.758;2024-01-07T06:40:50;2.20;99.90
82126;DHT22;71668;51.400;6.758;2024-01-07T06:43:17;2.10;99.90
82126;DHT22;71668;51.400;6.758;2024-01-07T06:45:45;2.10;99.90
82126;DHT22;71668;51.400;6.758;2024-01-07T06:48:12;2.10;99.90
82126;DHT22;71668;51.400;6.758;2024-01-07T06:50:39;2.10;99.90
82126;DHT22;71668;51.400;6.758;2024-01-07T06:53:06;2.10;99.90
82126;DHT22;71668;51.400;6.758;2024-01-07T06:55:33;2.20;99.90
82126;DHT22;71668;51.400;6.758;2024-01-07T06:57:59;2.10;99.90
82126;DHT22;71668;51.400;6.758;2024-01-07T07:00:26;2.10;99.90
82126;DHT22;71668;51.400;6.758;2024-01-07T07:02:54;2.00;99.90
82126;DHT22;71668;51.400;6.758;2024-01-07T07:05:20;2.00;99.90
82126;DHT22;71668;51.400;6.758;2024-01-07T07:07:47;2.00;99.90
82126;DHT22;71668;51.400;6.758;2024-01-07T07:10:16;2.10;99.90
82126;DHT22;71668;51.400;6.758;2024-01-07T07:12:43;2.10;99.90
82126;DHT22;71668;51.400;6.758;2024-01-07T07:15:13;2.10;99.90
82126;DHT22;71668;51.400;6.758;2024-01-07T07:17:39;2.20;99.90
82126;DHT22;71668;51.400;6.758;2024-01-07T07:20:07;2.20;99.90
82126;DHT22;71668;51.400;6.758;2024-01-07T07:22:34;2.10;99.90
82126;DHT22;71668;51.400;6.758;2024-01-07T07:25:01;2.10;99.90
82126;DHT22;71668;51.400;6.758;2024-01-07T07:27:29;2.10;99.90
82126;DHT22;71668;51.400;6.758;2024-01-07T07:29:55;2.10;99.90
82126;DHT22;71668;51.400;6.758;2024-01-07T07:32:23;2.10;99.90
82126;DHT22;71668;51.400;6.758;2024-01-07T07:34:50;2.10;99.90
82126;DHT22;71668;51.400;6.758;2024-01-07T07:37:17;2.10;99.90
82126;DHT22;71668;51.400;6.758;2024-01-07T07:39:47;2.00;99.90
82126;DHT22;71668;51.400;6.758;2024-01-07T07:42:15;2.10;99.90
82126;DHT22;71668;51.400;6.758;2024-01-07T07:44:41;2.10;99.90
82126;DHT22;71668;51.400;6.758;2024-01-07T07:47:09;2.20;99.90
82126;DHT22;71668;51.400;6.758;2024-01-07T07:49:38;2.10;99.90
82126;DHT22;71668;51.400;6.758;2024-01-07T07:52:10;2.10;99.90
82126;DHT22;71668;51.400;6.758;2024-01-07T07:54:37;2.10;99.90
82126;DHT22;71668;51.400;6.758;2024-01-07T07:57:04;2.10;99.90
82126;DHT22;71668;51.400;6.758;2024-01-07T07:59:33;2.10;99.90
82126;DHT22;71668;51.400;6.758;2024-01-07T08:02:00;2.00;99.90
82126;DHT22;71668;51.400;6.758;2024-01-07T08:04:27;2.10;99.90
82126;DHT22;71668;51.400;6.758;2024-01-07T08:06:54;2.10;99.90
82126;DHT22;71668;51.400;6.758;2024-01-07T08:09:22;2.00;99.90
82126;DHT22;71668;51.400;6.758;2024-01-07T08:11:52;2.00;99.90
82126;DHT22;71668;51.400;6.758;2024-01-07T08:14:19;1.90;99.90
82126;DHT22;71668;51.400;6.758;2024-01-07T08:16:46;1.90;99.90
82126;DHT22;71668;51.400;6.758;2024-01-07T08:19:13;1.90;99.90
82126;DHT22;71668;51.400;6.758;2024-01-07T08:21:40;2.10;99.90
82126;DHT22;71668;51.400;6.758;2024-01-07T08:24:07;2.10;99.90
82126;DHT22;71668;51.400;6.758;2024-01-07T08:26:34;1.90;99.90
82126;DHT22;71668;51.400;6.758;2024-01-07T08:29:00;1.80;99.90
82126;DHT22;71668;51.400;6.758;2024-01-07T08:31:27;1.70;99.90
82126;DHT22;71668;51.400;6.758;2024-01-07T08:33:54;1.70;99.90
82126;DHT22;71668;51.400;6.758;2024-01-07T08:36:23;1.70;99.90
82126;DHT22;71668;51.400;6.758;2024-01-07T08:38:50;1.70;99.90
82126;DHT22;71668;51.400;6.758;2024-01-07T08:41:17;1.60;99.90
82126;DHT22;71668;51.400;6.758;2024-01-07T08:43:44;1.60;99.90
82126;DHT22;71668;51.400;6.758;2024-01-07T08:46:14;1.60;99.90
82126;DHT22;71668;51.400;6.758;2024-01-07T08:48:41;1.60;99.90
82126;DHT22;71668;51.400;6.758;2024-01-07T08:51:08;1.50;99.90
82126;DHT22;71668;51.400;6.758;2024-01-07T08:53:34;1.60;99.90
82126;DHT22;71668;51.400;6.758;2024-01-07T08:56:01;1.70;99.90
82126;DHT22;71668;51.400;6.758;2024-01-07T08:58:28;1.90;99.90
82126;DHT22;71668;51.400;6.758;2024-01-07T09:00:55;1.90;99.90
82126;DHT22;71668;51.400;6.758;2024-01-07T09:03:22;1.70;99.90
82126;DHT22;71668;51.400;6.758;2024-01-07T09:05:49;1.70;99.90
82126;DHT22;71668;51.400;6.758;2024-01-07T09:08:16;1.70;99.90
82126;DHT22;71668;51.400;6.758;2024-01-07T09:10:42;1.70;99.90
82126;DHT22;71668;51.400;6.758;2024-01-07T09:13:09;1.60;99.90
82126;DHT22;71668;51.400;6.758;2024-01-07T09:15:36;1.60;99.90
82126;DHT22;71668;51.400;6.758;2024-01-07T09:18:04;1.60;99.90
82126;DHT22;71668;51.400;6.758;2024-01-07T09:20:31;1.60;99.90
82126;DHT22;71668;51.400;6.758;2024-01-07T09:22:58;1.70;99.90
82126;DHT22;71668;51.400;6.758;2024-01-07T09:25:25;1.70;99.90
82126;DHT22;71668;51.400;6.758;2024-01-07T09:27:52;1.70;99.90
82126;DHT22;71668;51.400;6.758;2024-01-07T09:30:21;1.70;99.90
82126;DHT22;71668;51.400;6.758;2024-01-07T09:32:48;1.70;99.90
82126;DHT22;71668;51.400;6.758;2024-01-07T09:35:15;1.60;99.90
82126;DHT22;71668;51.400;6.758;2024-01-07T09:37:42;1.60;99.90
82126;DHT22;71668;51.400;6.758;2024-01-07T09:40:09;1.50;99.90
82126;DHT22;71668;51.400;6.758;2024-01-07T09:42:36;1.50;99.90
82126;DHT22;71668;51.400;6.758;2024-01-07T09:45:04;1.50;99.90
82126;DHT22;71668;51.400;6.758;2024-01-07T09:47:32;1.40;99.90
82126;DHT22;71668;51.400;6.758;2024-01-07T09:49:59;1.50;99.90
82126;DHT22;71668;51.400;6.758;2024-01-07T09:52:26;1.40;99.90
82126;DHT22;71668;51.400;6.758;2024-01-07T09:54:58;1.50;99.90
82126;DHT22;71668;51.400;6.758;2024-01-07T09:57:25;1.60;99.90
82126;DHT22;71668;51.400;6.758;2024-01-07T09:59:52;1.50;99.90
82126;DHT22;71668;51.400;6.758;2024-01-07T10:02:20;1.50;99.90
82126;DHT22;71668;51.400;6.758;2024-01-07T10:04:47;1.50;99.90
82126;DHT22;71668;51.400;6.758;2024-01-07T10:07:15;1.40;99.90
82126;DHT22;71668;51.400;6.758;2024-01-07T10:09:43;1.30;99.90
82126;DHT22;71668;51.400;6.758;2024-01-07T10:12:10;1.40;99.90
82126;DHT22;71668;51.400;6.758;2024-01-07T10:14:39;1.50;99.90
82126;DHT22;71668;51.400;6.758;2024-01-07T10:17:17;1.50;99.90
82126;DHT22;71668;51.400;6.758;2024-01-07T10:19:44;1.50;99.90
82126;DHT22;71668;51.400;6.758;2024-01-07T10:22:13;1.50;99.90
82126;DHT22;71668;51.400;6.758;2024-01-07T10:24:41;1.50;99.90
82126;DHT22;71668;51.400;6.758;2024-01-07T10:27:09;1.50;99.90
82126;DHT22;71668;51.400;6.758;2024-01-07T10:29:37;1.50;99.90
82126;DHT22;71668;51.400;6.758;2024-01-07T10:32:04;1.50;99.90
82126;DHT22;71668;51.400;6.758;2024-01-07T10:34:34;1.50;99.90
82126;DHT22;71668;51.400;6.758;2024-01-07T10:37:05;1.60;99.90
82126;DHT22;71668;51.400;6.758;2024-01-07T10:39:33;1.60;99.90
82126;DHT22;71668;51.400;6.758;2024-01-07T10:42:00;1.50;99.90
82126;DHT22;71668;51.400;6.758;2024-01-07T10:44:32;1.60;99.90
82126;DHT22;71668;51.400;6.758;2024-01-07T10:46:59;1.60;99.90
82126;DHT22;71668;51.400;6.758;2024-01-07T10:49:27;1.50;99.90
82126;DHT22;71668;51.400;6.758;2024-01-07T10:52:06;1.50;99.90
82126;DHT22;71668;51.400;6.758;2024-01-07T10:54:35;1.50;99.90
82126;DHT22;71668;51.400;6.758;2024-01-07T10:59:59;1.40;99.90
82126;DHT22;71668;51.400;6.758;2024-01-07T11:02:27;1.40;99.90
82126;DHT22;71668;51.400;6.758;2024-01-07T11:05:11;1.30;99.90
82126;DHT22;71668;51.400;6.758;2024-01-07T11:07:45;1.30;99.90
82126;DHT22;71668;51.400;6.758;2024-01-07T11:10:26;1.30;99.90
82126;DHT22;71668;51.400;6.758;2024-01-07T11:13:07;1.30;99.90
82126;DHT22;71668;51.400;6.758;2024-01-07T11:18:21;1.20;99.90
82126;DHT22;71668;51.400;6.758;2024-01-07T11:20:49;1.40;99.90
82126;DHT22;71668;51.400;6.758;2024-01-07T11:23:29;1.50;99.90
82126;DHT22;71668;51.400;6.758;2024-01-07T11:25:57;1.50;99.90
82126;DHT22;71668;51.400;6.758;2024-01-07T11:28:56;1.50;99.90
82126;DHT22;71668;51.400;6.758;2024-01-07T11:34:09;1.50;99.90
82126;DHT22;71668;51.400;6.758;2024-01-07T11:36:37;1.30;99.90
82126;DHT22;71668;51.400;6.758;2024-01-07T11:39:04;1.30;99.90
82126;DHT22;71668;51.400;6.758;2024-01-07T11:41:33;1.30;99.90
82126;DHT22;71668;51.400;6.758;2024-01-07T11:44:01;1.20;99.90
82126;DHT22;71668;51.400;6.758;2024-01-07T11:46:32;1.20;99.90
82126;DHT22;71668;51.400;6.758;2024-01-07T11:49:00;1.20;99.90
82126;DHT22;71668;51.400;6.758;2024-01-07T11:51:29;1.40;99.90
82126;DHT22;71668;51.400;6.758;2024-01-07T11:53:58;1.50;99.90
82126;DHT22;71668;51.400;6.758;2024-01-07T11:56:26;1.40;99.90
82126;DHT22;71668;51.400;6.758;2024-01-07T11:58:54;1.30;99.90
82126;DHT22;71668;51.400;6.758;2024-01-07T12:01:23;1.10;99.90
82126;DHT22;71668;51.400;6.758;2024-01-07T12:03:50;1.30;99.90
82126;DHT22;71668;51.400;6.758;2024-01-07T12:06:19;1.20;99.90
82126;DHT22;71668;51.400;6.758;2024-01-07T12:08:46;1.10;99.90
82126;DHT22;71668;51.400;6.758;2024-01-07T12:11:14;1.00;99.90
82126;DHT22;71668;51.400;6.758;2024-01-07T12:13:42;0.90;99.90
82126;DHT22;71668;51.400;6.758;2024-01-07T12:16:10;0.90;99.90
82126;DHT22;71668;51.400;6.758;2024-01-07T12:18:40;0.90;99.90
82126;DHT22;71668;51.400;6.758;2024-01-07T12:21:07;1.00;99.90
82126;DHT22;71668;51.400;6.758;2024-01-07T12:23:35;1.00;99.90
82126;DHT22;71668;51.400;6.758;2024-01-07T12:26:10;1.00;99.90
82126;DHT22;71668;51.400;6.758;2024-01-07T12:28:38;1.00;99.90
82126;DHT22;71668;51.400;6.758;2024-01-07T12:31:05;0.90;99.90
82126;DHT22;71668;51.400;6.758;2024-01-07T12:33:32;0.90;99.90
82126;DHT22;71668;51.400;6.758;2024-01-07T12:36:01;0.90;99.90
82126;DHT22;71668;51.400;6.758;2024-01-07T12:38:28;0.90;99.70
82126;DHT22;71668;51.400;6.758;2024-01-07T12:40:56;0.90;99.90
82126;DHT22;71668;51.400;6.758;2024-01-07T12:43:23;0.90;99.90
82126;DHT22;71668;51.400;6.758;2024-01-07T12:45:49;0.80;99.90
82126;DHT22;71668;51.400;6.758;2024-01-07T12:48:16;0.80;99.90
82126;DHT22;71668;51.400;6.758;2024-01-07T12:50:43;0.80;99.90
82126;DHT22;71668;51.400;6.758;2024-01-07T12:53:10;0.70;99.90
82126;DHT22;71668;51.400;6.758;2024-01-07T12:55:38;0.60;99.90
82126;DHT22;71668;51.400;6.758;2024-01-07T12:58:05;0.70;99.90
82126;DHT22;71668;51.400;6.758;2024-01-07T13:00:35;0.70;99.90
82126;DHT22;71668;51.400;6.758;2024-01-07T13:03:03;0.80;99.90
82126;DHT22;71668;51.400;6.758;2024-01-07T13:05:31;0.70;99.60
82126;DHT22;71668;51.400;6.758;2024-01-07T13:07:59;0.70;98.70
82126;DHT22;71668;51.400;6.758;2024-01-07T13:10:29;0.70;98.80
82126;DHT22;71668;51.400;6.758;2024-01-07T13:12:56;0.80;99.20
82126;DHT22;71668;51.400;6.758;2024-01-07T13:15:37;0.70;98.90
82126;DHT22;71668;51.400;6.758;2024-01-07T13:18:04;0.70;98.50
82126;DHT22;71668;51.400;6.758;2024-01-07T13:20:31;0.70;98.20
82126;DHT22;71668;51.400;6.758;2024-01-07T13:22:58;0.70;99.00
82126;DHT22;71668;51.400;6.758;2024-01-07T13:25:26;0.70;98.90
82126;DHT22;71668;51.400;6.758;2024-01-07T13:27:54;0.80;99.10
82126;DHT22;71668;51.400;6.758;2024-01-07T13:30:21;0.80;98.70
82126;DHT22;71668;51.400;6.758;2024-01-07T13:32:48;0.80;98.10
82126;DHT22;71668;51.400;6.758;2024-01-07T13:35:16;0.70;97.90
82126;DHT22;71668;51.400;6.758;2024-01-07T13:37:43;0.70;98.20
82126;DHT22;71668;51.400;6.758;2024-01-07T13:40:11;0.70;97.60
82126;DHT22;71668;51.400;6.758;2024-01-07T13:42:38;0.70;96.70
82126;DHT22;71668;51.400;6.758;2024-01-07T13:45:05;0.60;96.60
82126;DHT22;71668;51.400;6.758;2024-01-07T13:47:32;0.60;96.90
82126;DHT22;71668;51.400;6.758;2024-01-07T13:50:06;0.60;96.90
82126;DHT22;71668;51.400;6.758;2024-01-07T13:52:33;0.50;96.50
82126;DHT22;71668;51.400;6.758;2024-01-07T13:55:03;0.50;96.90
82126;DHT22;71668;51.400;6.758;2024-01-07T13:57:30;0.60;96.90
82126;DHT22;71668;51.400;6.758;2024-01-07T13:59:57;0.70;97.20
82126;DHT22;71668;51.400;6.758;2024-01-07T14:02:24;0.60;96.50
82126;DHT22;71668;51.400;6.758;2024-01-07T14:04:51;0.60;97.30
82126;DHT22;71668;51.400;6.758;2024-01-07T14:07:21;0.60;96.60
82126;DHT22;71668;51.400;6.758;2024-01-07T14:09:48;0.70;96.30
82126;DHT22;71668;51.400;6.758;2024-01-07T14:12:14;0.70;96.40
82126;DHT22;71668;51.400;6.758;2024-01-07T14:14:41;0.80;95.50
82126;DHT22;71668;51.400;6.758;2024-01-07T14:17:08;0.80;95.90
82126;DHT22;71668;51.400;6.758;2024-01-07T14:19:35;0.70;95.30
82126;DHT22;71668;51.400;6.758;2024-01-07T14:22:02;0.70;95.00
82126;DHT22;71668;51.400;6.758;2024-01-07T14:24:28;0.70;95.30
82126;DHT22;71668;51.400;6.758;2024-01-07T14:26:55;0.80;95.00
82126;DHT22;71668;51.400;6.758;2024-01-07T14:29:24;0.80;95.00
82126;DHT22;71668;51.400;6.758;2024-01-07T14:31:51;0.80;94.70
82126;DHT22;71668;51.400;6.758;2024-01-07T14:34:18;0.80;93.60
82126;DHT22;71668;51.400;6.758;2024-01-07T14:36:45;0.70;94.10
82126;DHT22;71668;51.400;6.758;2024-01-07T14:39:12;0.80;93.60
82126;DHT22;71668;51.400;6.758;2024-01-07T14:41:42;0.80;94.30
82126;DHT22;71668;51.400;6.758;2024-01-07T14:44:10;0.80;94.10
82126;DHT22;71668;51.400;6.758;2024-01-07T14:46:39;0.80;93.90
82126;DHT22;71668;51.400;6.758;2024-01-07T14:49:06;0.80;94.30
82126;DHT22;71668;51.400;6.758;2024-01-07T14:51:34;0.80;93.80
82126;DHT22;71668;51.400;6.758;2024-01-07T14:54:01;0.80;93.70
82126;DHT22;71668;51.400;6.758;2024-01-07T14:56:28;0.80;93.90
82126;DHT22;71668;51.400;6.758;2024-01-07T14:58:55;0.80;93.50
82126;DHT22;71668;51.400;6.758;2024-01-07T15:01:22;0.90;93.80
82126;DHT22;71668;51.400;6.758;2024-01-07T15:03:49;0.90;93.60
82126;DHT22;71668;51.400;6.758;2024-01-07T15:06:16;0.90;92.90
82126;DHT22;71668;51.400;6.758;2024-01-07T15:08:43;0.90;93.60
82126;DHT22;71668;51.400;6.758;2024-01-07T15:11:10;0.90;94.10
82126;DHT22;71668;51.400;6.758;2024-01-07T15:13:40;0.90;94.30
82126;DHT22;71668;51.400;6.758;2024-01-07T15:16:07;1.00;93.80
82126;DHT22;71668;51.400;6.758;2024-01-07T15:18:34;0.90;94.00
82126;DHT22;71668;51.400;6.758;2024-01-07T15:21:05;0.90;93.90
82126;DHT22;71668;51.400;6.758;2024-01-07T15:23:32;0.90;94.10
82126;DHT22;71668;51.400;6.758;2024-01-07T15:25:58;0.90;94.40
82126;DHT22;71668;51.400;6.758;2024-01-07T15:28:25;0.90;94.00
82126;DHT22;71668;51.400;6.758;2024-01-07T15:30:52;0.90;94.30
82126;DHT22;71668;51.400;6.758;2024-01-07T15:33:20;0.90;94.30
82126;DHT22;71668;51.400;6.758;2024-01-07T15:35:47;0.90;93.80
82126;DHT22;71668;51.400;6.758;2024-01-07T15:38:14;0.80;93.40
82126;DHT22;71668;51.400;6.758;2024-01-07T15:40:41;0.80;94.20
82126;DHT22;71668;51.400;6.758;2024-01-07T15:43:08;0.90;95.00
82126;DHT22;71668;51.400;6.758;2024-01-07T15:45:38;0.90;94.50
82126;DHT22;71668;51.400;6.758;2024-01-07T15:48:05;0.90;93.40
82126;DHT22;71668;51.400;6.758;2024-01-07T15:50:32;1.00;94.50
82126;DHT22;71668;51.400;6.758;2024-01-07T15:52:59;0.90;93.90
82126;DHT22;71668;51.400;6.758;2024-01-07T15:55:28;0.90;94.60